Главная страница
METAR-TAF:

METAR-TAF

Аэропорты :

Маджуро, Маршалловы Острова

широта: 07-04N, долгота: 171-17E, высота над уровнем моря: 2 м

Текущие метеонаблюдения

Эта сводка был подготовлена 30 минут назад, в 22:59 UTC
Ветер 5 Узел от северно-северо-западный
Температура 31°C
Влажность 75%
Давление 1012 hPa
Видимость: 32.2 км
небольшая облачность на высоте 1600 фута
Отдельные облака на высоте 30000 фута

METAR: PKMJ 212259Z 34005KT 20SM FEW016 SCT300 31/26 A2988

Время: 11:29 (23:29 UTC)

Прогноз

Эта сводка был подготовлена 6 часа и 3 минут назад, в 17:26 UTC
Прогноз действительный с 21-го 18 UTC до 22-го 18 UTC
Ветер 5 Узел переменных направлений
Видимость: 10 км
небольшая облачность на высоте 1400 фута
Отдельные облака на высоте 5000 фута
ливни в окрестностях

TAF: PKMJ 211726Z 2118/2218 VRB05KT P6SM VCSH FEW014 SCT050

Метеонаблюдения и прогнозы для более 4000 аэропортов (сводки METAR и TAF).

Имеющиеся станции представлены на карте желтыми и красными точками.

Чтобы увидеть название станции, наведите на нее мышь.

Затем щелкните, чтобы увидеть метеонаблюдения и метеопрогнозы.

Управление картой: чтобы увеличить масштаб, щелкните зеленые кнопки с черным крестиком; чтобы уменьшить масштаб, щелкните зеленую кнопку с тире; для просмотра соседних карт щелкайте зеленые стрелки.


METAR-TAF: